Time;durP1;ratioP1;P1;durP2;ratioP2;P2;SDS_P1;SDS_P2;PMS_P1;PMS_P2;Temp;Humidity;BMP_temperature;BMP_pressure;BME280_temperature;BME280_humidity;BME280_pressure;Samples;Min_cycle;Max_cycle;Signal;HPM_P1;HPM_P2
2021/12/27 00:01:56;;;;;;;14.73;5.40;;;-0.10;99.90;;;;;;5090062;28;20594;-63
2021/12/27 00:04:23;;;;;;;13.13;4.90;;;-0.10;99.90;;;;;;5088796;28;20578;-63
2021/12/27 00:06:51;;;;;;;10.97;5.10;;;-0.10;99.90;;;;;;5110132;28;20191;-63
2021/12/27 00:09:18;;;;;;;10.93;4.70;;;-0.10;99.90;;;;;;5088029;28;20208;-63
2021/12/27 00:11:45;;;;;;;11.53;4.63;;;-0.10;99.90;;;;;;5107672;28;20199;-63
2021/12/27 00:14:13;;;;;;;10.63;4.33;;;-0.10;99.90;;;;;;5105690;28;20218;-62
2021/12/27 00:16:40;;;;;;;11.63;5.00;;;-0.10;99.90;;;;;;5098944;28;20558;-62
2021/12/27 00:19:08;;;;;;;11.97;5.00;;;0.00;99.90;;;;;;5104388;28;20192;-62
2021/12/27 00:21:36;;;;;;;14.90;5.90;;;-0.10;99.90;;;;;;5106699;28;20264;-62
2021/12/27 00:24:05;;;;;;;11.57;5.00;;;-0.10;99.90;;;;;;5091548;28;20212;-62
2021/12/27 00:26:33;;;;;;;15.80;6.20;;;-0.10;99.90;;;;;;5109965;27;20781;-62
2021/12/27 00:29:00;;;;;;;13.90;5.77;;;-0.20;99.90;;;;;;5105504;27;20219;-63
2021/12/27 00:31:27;;;;;;;13.27;5.23;;;-0.10;99.90;;;;;;5098727;28;20200;-61
2021/12/27 00:33:55;;;;;;;14.13;5.70;;;-0.10;99.90;;;;;;5100338;28;20185;-63
2021/12/27 00:36:22;;;;;;;11.40;5.30;;;-0.20;99.90;;;;;;5105378;28;20649;-62
2021/12/27 00:38:49;;;;;;;11.60;5.00;;;-0.20;99.90;;;;;;5091825;28;20650;-62
2021/12/27 00:41:18;;;;;;;13.37;6.23;;;-0.20;99.90;;;;;;5099795;28;20198;-62
2021/12/27 00:43:45;;;;;;;13.10;5.40;;;-0.20;99.90;;;;;;5098966;28;20224;-62
2021/12/27 00:46:12;;;;;;;11.40;5.00;;;-0.30;99.90;;;;;;5100854;28;20271;-62
2021/12/27 00:48:39;;;;;;;12.53;5.50;;;-0.30;99.90;;;;;;5094185;28;20200;-62
2021/12/27 00:51:08;;;;;;;11.80;5.20;;;-0.30;99.90;;;;;;5082954;28;20302;-62
2021/12/27 00:53:36;;;;;;;11.53;5.07;;;-0.30;99.90;;;;;;5102591;28;20199;-62
2021/12/27 00:56:03;;;;;;;11.43;5.00;;;-0.30;99.90;;;;;;5096557;28;20191;-62
2021/12/27 00:58:32;;;;;;;11.57;4.83;;;-0.30;99.90;;;;;;5102334;28;20660;-62
2021/12/27 01:00:59;;;;;;;15.77;5.30;;;-0.30;99.90;;;;;;5102579;28;20191;-63
2021/12/27 01:03:26;;;;;;;13.57;4.83;;;-0.30;99.90;;;;;;5101493;28;20669;-63
2021/12/27 01:05:53;;;;;;;9.47;4.30;;;-0.30;99.90;;;;;;5081332;28;20303;-63
2021/12/27 01:08:20;;;;;;;10.63;4.27;;;-0.20;99.90;;;;;;5103695;28;20282;-63
2021/12/27 01:11:10;;;;;;;12.30;5.03;;;-0.20;99.90;;;;;;5102832;28;20208;-62
2021/12/27 01:13:42;;;;;;;9.03;4.93;;;-0.20;99.90;;;;;;5104997;28;20270;-62
2021/12/27 01:16:11;;;;;;;10.57;4.47;;;-0.20;99.90;;;;;;5100563;28;20209;-63
2021/12/27 01:18:41;;;;;;;10.20;5.07;;;-0.20;99.90;;;;;;5105208;28;20196;-62
2021/12/27 01:21:09;;;;;;;9.80;4.37;;;-0.20;99.90;;;;;;5102600;28;20226;-63
2021/12/27 01:23:36;;;;;;;9.47;4.33;;;-0.20;99.90;;;;;;5084960;28;20281;-63
2021/12/27 01:26:03;;;;;;;6.43;3.40;;;-0.10;99.90;;;;;;5082821;28;20196;-63
2021/12/27 01:28:31;;;;;;;8.87;4.03;;;-0.10;99.90;;;;;;5113033;28;20191;-62
2021/12/27 01:31:00;;;;;;;8.20;3.63;;;-0.10;99.90;;;;;;5096383;28;20196;-62
2021/12/27 01:33:28;;;;;;;5.40;3.50;;;0.00;99.90;;;;;;5100928;28;20187;-61
2021/12/27 01:35:56;;;;;;;10.60;4.43;;;0.00;99.90;;;;;;5101741;28;20377;-61
2021/12/27 01:38:23;;;;;;;5.07;3.03;;;0.00;99.90;;;;;;5099191;28;20593;-62
2021/12/27 01:40:54;;;;;;;8.97;4.20;;;0.00;99.90;;;;;;5098296;28;20266;-63
2021/12/27 01:43:25;;;;;;;8.07;3.73;;;0.00;99.90;;;;;;5095926;28;20192;-63
2021/12/27 01:45:54;;;;;;;7.57;3.20;;;0.00;99.90;;;;;;5093892;28;20201;-63
2021/12/27 01:48:33;;;;;;;7.17;3.53;;;0.00;99.90;;;;;;5096068;28;20560;-63
2021/12/27 01:51:02;;;;;;;10.23;4.50;;;0.00;99.90;;;;;;5106818;28;20213;-62
2021/12/27 01:53:32;;;;;;;11.30;4.53;;;0.10;99.90;;;;;;5102566;28;20200;-63
2021/12/27 01:56:00;;;;;;;8.63;4.20;;;0.10;99.90;;;;;;5092758;28;20640;-62
2021/12/27 01:58:28;;;;;;;7.17;3.67;;;0.00;99.90;;;;;;5099323;28;20659;-63
2021/12/27 02:00:57;;;;;;;9.87;4.90;;;0.00;99.90;;;;;;5110986;28;20191;-62
2021/12/27 02:03:28;;;;;;;10.33;5.00;;;0.00;99.90;;;;;;5080981;28;20216;-63
2021/12/27 02:05:56;;;;;;;11.33;4.70;;;-0.10;99.90;;;;;;5084352;28;20691;-63
2021/12/27 02:08:24;;;;;;;12.87;5.53;;;-0.10;99.90;;;;;;5111809;28;20208;-62
2021/12/27 02:10:51;;;;;;;10.23;4.80;;;-0.20;99.90;;;;;;5102723;28;20218;-62
2021/12/27 02:13:19;;;;;;;11.43;5.27;;;-0.20;99.90;;;;;;5107887;28;20228;-61
2021/12/27 02:15:46;;;;;;;9.87;4.30;;;-0.20;99.90;;;;;;5083636;28;20248;-62
2021/12/27 02:18:14;;;;;;;10.63;4.13;;;1.10;99.90;;;;;;5093307;28;20200;-62
2021/12/27 02:20:44;;;;;;;9.53;4.17;;;-0.20;99.90;;;;;;5103886;28;20196;-62
2021/12/27 02:23:16;;;;;;;11.73;4.17;;;-0.20;99.90;;;;;;5110729;28;20233;-62
2021/12/27 02:25:44;;;;;;;10.07;4.20;;;-0.20;99.90;;;;;;5111041;28;20215;-61
2021/12/27 02:28:12;;;;;;;6.33;3.27;;;-0.30;99.90;;;;;;5112386;28;20242;-61
2021/12/27 02:30:42;;;;;;;7.20;3.93;;;-0.30;99.90;;;;;;5111043;28;20198;-62
2021/12/27 02:33:11;;;;;;;9.40;4.30;;;-0.30;99.90;;;;;;5098122;28;20199;-62
2021/12/27 02:35:40;;;;;;;9.67;3.90;;;-0.30;99.90;;;;;;5111421;28;20224;-62
2021/12/27 02:38:11;;;;;;;10.20;4.67;;;-0.40;99.90;;;;;;5109402;28;20258;-62
2021/12/27 02:40:40;;;;;;;8.37;3.93;;;-0.50;99.90;;;;;;5101524;28;20678;-62
2021/12/27 02:43:09;;;;;;;11.67;4.53;;;-0.50;99.90;;;;;;5110629;28;20203;-62
2021/12/27 02:45:39;;;;;;;10.17;4.13;;;-0.60;99.90;;;;;;5102892;28;20695;-62
2021/12/27 02:48:07;;;;;;;8.93;3.93;;;-0.70;99.90;;;;;;5110680;28;20281;-62
2021/12/27 02:50:35;;;;;;;8.50;3.17;;;-0.70;99.90;;;;;;5110486;28;20225;-62
2021/12/27 02:53:04;;;;;;;7.23;3.63;;;-0.70;99.90;;;;;;5101028;28;20192;-62
2021/12/27 02:55:33;;;;;;;12.17;4.60;;;-0.80;99.90;;;;;;5095986;28;20199;-62
2021/12/27 02:58:00;;;;;;;13.90;5.77;;;-0.70;99.90;;;;;;5097987;28;20196;-62
2021/12/27 03:00:30;;;;;;;13.13;5.23;;;-0.80;99.90;;;;;;5097614;27;20187;-62
2021/12/27 03:02:58;;;;;;;10.43;5.03;;;-0.80;99.90;;;;;;5105941;28;20275;-62
2021/12/27 03:05:27;;;;;;;11.37;4.17;;;-0.80;99.90;;;;;;5097808;28;20208;-62
2021/12/27 03:07:55;;;;;;;21.20;8.20;;;-0.80;99.90;;;;;;5081924;28;20524;-62
2021/12/27 03:10:25;;;;;;;16.97;6.93;;;-0.80;99.90;;;;;;5110089;28;20200;-62
2021/12/27 03:12:55;;;;;;;21.17;7.20;;;-0.80;99.90;;;;;;5110336;28;20680;-62
2021/12/27 03:15:23;;;;;;;20.13;6.87;;;-0.90;99.90;;;;;;5098934;28;20244;-62
2021/12/27 03:17:52;;;;;;;12.50;5.50;;;-1.00;99.90;;;;;;5108361;28;20191;-62
2021/12/27 03:20:21;;;;;;;19.30;6.80;;;-1.00;99.90;;;;;;5101284;28;20191;-62
2021/12/27 03:22:49;;;;;;;15.93;5.23;;;-1.10;99.90;;;;;;5101080;28;20655;-62
2021/12/27 03:25:19;;;;;;;20.87;6.77;;;-1.10;99.90;;;;;;5091988;28;20283;-62
2021/12/27 03:27:47;;;;;;;15.93;6.10;;;-1.00;99.90;;;;;;5100409;28;20197;-62
2021/12/27 03:30:18;;;;;;;16.83;6.97;;;-1.20;99.90;;;;;;5107188;28;20196;-62
2021/12/27 03:32:45;;;;;;;14.70;5.73;;;-1.20;99.90;;;;;;5104538;28;20208;-62
2021/12/27 03:35:15;;;;;;;9.30;4.37;;;-1.30;99.90;;;;;;5107109;28;20195;-62
2021/12/27 03:37:45;;;;;;;14.03;4.80;;;-1.40;99.90;;;;;;5107053;28;20195;-61
2021/12/27 03:40:15;;;;;;;7.60;4.13;;;-1.40;99.90;;;;;;5082562;28;20220;-63
2021/12/27 03:42:45;;;;;;;7.80;3.17;;;-1.40;99.90;;;;;;5099166;28;20192;-62
2021/12/27 03:45:18;;;;;;;4.90;2.77;;;-1.40;99.90;;;;;;5097151;28;20319;-62
2021/12/27 03:47:45;;;;;;;4.33;2.70;;;-1.50;99.90;;;;;;5099589;28;20184;-62
2021/12/27 03:50:12;;;;;;;12.43;4.90;;;-1.50;99.90;;;;;;5104810;28;20278;-61
2021/12/27 03:52:39;;;;;;;10.20;4.50;;;-1.50;99.90;;;;;;5093420;28;20200;-62
2021/12/27 03:55:08;;;;;;;10.30;4.07;;;-1.50;99.90;;;;;;5097533;28;20682;-62
2021/12/27 03:57:38;;;;;;;11.13;4.33;;;-1.50;99.90;;;;;;5085702;28;20544;-62
2021/12/27 04:00:28;;;;;;;6.73;3.50;;;-1.60;99.90;;;;;;5106215;28;20188;-61
2021/12/27 04:02:59;;;;;;;11.20;4.57;;;-1.70;99.90;;;;;;5102839;28;20559;-64
2021/12/27 04:05:27;;;;;;;16.57;4.60;;;-1.70;99.90;;;;;;5105740;28;20203;-62
2021/12/27 04:08:00;;;;;;;9.80;4.70;;;-1.80;99.90;;;;;;5102849;28;20640;-62
2021/12/27 04:10:29;;;;;;;9.07;4.40;;;-1.80;99.90;;;;;;5076159;28;20207;-61
2021/12/27 04:12:57;;;;;;;21.87;4.60;;;-1.90;99.90;;;;;;5101636;28;20227;-61
2021/12/27 04:15:24;;;;;;;5.83;3.50;;;-1.90;99.90;;;;;;5108867;28;20268;-62
2021/12/27 04:17:52;;;;;;;8.00;4.23;;;-2.00;99.90;;;;;;5110615;28;20274;-62
2021/12/27 04:20:22;;;;;;;19.57;4.57;;;-2.00;99.90;;;;;;5108237;28;20343;-61
2021/12/27 04:22:50;;;;;;;10.67;4.43;;;-2.00;99.90;;;;;;5109082;28;20346;-62
2021/12/27 04:25:19;;;;;;;10.77;5.07;;;-2.10;99.90;;;;;;5099461;28;20214;-62
2021/12/27 04:27:47;;;;;;;7.97;3.80;;;-2.10;99.90;;;;;;5105139;28;20252;-62
2021/12/27 04:30:15;;;;;;;9.07;3.73;;;-2.10;99.90;;;;;;5088247;28;20235;-62
2021/12/27 04:32:43;;;;;;;5.63;3.30;;;-2.00;99.90;;;;;;5106632;28;20188;-62
2021/12/27 04:35:11;;;;;;;7.43;3.50;;;-2.00;99.90;;;;;;5106169;28;20559;-62
2021/12/27 04:37:39;;;;;;;5.50;2.83;;;-1.00;99.90;;;;;;5107910;28;20206;-62
2021/12/27 04:40:10;;;;;;;6.33;3.00;;;-1.90;99.90;;;;;;5105330;28;20192;-62
2021/12/27 04:42:38;;;;;;;5.13;2.47;;;-1.90;99.90;;;;;;5087957;28;20273;-62
2021/12/27 04:45:07;;;;;;;3.23;2.27;;;-1.90;99.90;;;;;;5095747;28;20214;-63
2021/12/27 04:47:34;;;;;;;3.40;2.07;;;-1.80;99.90;;;;;;5107360;28;20223;-62
2021/12/27 04:50:02;;;;;;;21.33;5.77;;;-1.80;99.90;;;;;;5104772;28;20549;-63
2021/12/27 04:52:29;;;;;;;22.07;5.53;;;-1.80;99.90;;;;;;5106109;28;20252;-63
2021/12/27 04:54:57;;;;;;;20.90;5.30;;;-1.90;99.90;;;;;;5105156;28;20204;-61
2021/12/27 04:57:24;;;;;;;12.53;5.27;;;-1.90;99.90;;;;;;5100401;28;20252;-63
2021/12/27 04:59:52;;;;;;;39.90;7.10;;;-2.00;99.90;;;;;;5091723;28;20195;-62
2021/12/27 05:02:19;;;;;;;17.23;5.83;;;-2.10;99.90;;;;;;5076307;28;20237;-62
2021/12/27 05:04:46;;;;;;;30.23;7.13;;;-2.20;99.90;;;;;;5101018;28;20211;-63
2021/12/27 05:07:13;;;;;;;14.43;6.30;;;-2.20;99.90;;;;;;5093735;28;20567;-63
2021/12/27 05:09:41;;;;;;;25.87;6.57;;;-2.30;99.90;;;;;;5091759;28;20299;-62
2021/12/27 05:12:10;;;;;;;20.43;7.67;;;-2.30;99.90;;;;;;5094346;28;21039;-62
2021/12/27 05:14:37;;;;;;;26.77;7.50;;;-2.30;99.90;;;;;;5109990;28;20198;-63
2021/12/27 05:17:04;;;;;;;16.83;7.00;;;-2.30;99.90;;;;;;5078695;28;20677;-63
2021/12/27 05:19:31;;;;;;;27.87;8.20;;;-2.30;99.90;;;;;;5116331;28;20530;-62
2021/12/27 05:21:59;;;;;;;23.83;7.73;;;-2.30;99.90;;;;;;5105223;28;20231;-62
2021/12/27 05:24:27;;;;;;;24.40;8.37;;;-2.30;99.90;;;;;;5100767;28;20306;-62
2021/12/27 05:26:54;;;;;;;19.63;7.63;;;-2.30;99.90;;;;;;5105383;28;20295;-62
2021/12/27 05:29:24;;;;;;;25.67;7.07;;;-2.30;99.90;;;;;;5108402;28;20562;-62
2021/12/27 05:31:52;;;;;;;37.20;9.37;;;-2.20;99.90;;;;;;5101855;28;20188;-62
2021/12/27 05:34:20;;;;;;;26.93;8.57;;;-2.20;99.90;;;;;;5109856;28;20196;-62
2021/12/27 05:36:47;;;;;;;49.20;9.80;;;-2.20;99.90;;;;;;5105210;28;20257;-62
2021/12/27 05:39:16;;;;;;;32.93;9.00;;;-2.20;99.90;;;;;;5092765;28;20196;-62
2021/12/27 05:41:43;;;;;;;23.57;8.07;;;-2.20;99.90;;;;;;5097512;28;20202;-62
2021/12/27 05:44:10;;;;;;;24.27;7.63;;;-2.10;99.90;;;;;;5085120;28;20204;-64
2021/12/27 05:46:39;;;;;;;16.73;6.90;;;-2.10;99.90;;;;;;5103179;28;20212;-62
2021/12/27 05:49:06;;;;;;;29.10;8.37;;;-2.10;99.90;;;;;;5106706;28;20194;-62
2021/12/27 05:51:33;;;;;;;27.07;9.17;;;-2.10;99.90;;;;;;5084458;28;20630;-61
2021/12/27 05:54:01;;;;;;;21.20;7.53;;;-2.20;99.90;;;;;;5107132;28;20274;-62
2021/12/27 05:56:28;;;;;;;11.37;5.10;;;-2.30;99.90;;;;;;5080416;28;20654;-62
2021/12/27 05:58:55;;;;;;;11.03;4.60;;;-2.30;99.90;;;;;;5106037;28;20666;-62
2021/12/27 06:01:22;;;;;;;11.10;4.50;;;-2.20;99.90;;;;;;5092184;28;20570;-62
2021/12/27 06:03:50;;;;;;;9.67;4.40;;;-2.20;99.90;;;;;;5107378;28;20731;-62
2021/12/27 06:06:18;;;;;;;6.93;3.53;;;-2.20;99.90;;;;;;5093729;28;20208;-62
2021/12/27 06:08:45;;;;;;;6.97;3.80;;;-2.10;99.90;;;;;;5103765;28;20199;-62
2021/12/27 06:11:12;;;;;;;9.07;3.70;;;-2.20;99.90;;;;;;5110332;28;20202;-63
2021/12/27 06:13:39;;;;;;;9.07;3.73;;;-2.20;99.90;;;;;;5109147;28;20204;-62
2021/12/27 06:16:06;;;;;;;7.00;3.43;;;-2.20;99.90;;;;;;5110008;28;20191;-62
2021/12/27 06:18:33;;;;;;;8.73;3.60;;;-2.20;99.90;;;;;;5107615;28;20222;-62
2021/12/27 06:21:04;;;;;;;6.77;3.47;;;-2.20;99.90;;;;;;5110327;28;20188;-62
2021/12/27 06:23:31;;;;;;;7.23;4.10;;;-2.30;99.90;;;;;;5092258;28;20778;-62
2021/12/27 06:25:59;;;;;;;10.67;4.50;;;-2.10;99.90;;;;;;5094301;28;20297;-62
2021/12/27 06:28:27;;;;;;;8.20;3.33;;;-2.30;99.90;;;;;;5091717;28;20657;-62
2021/12/27 06:30:54;;;;;;;10.73;4.27;;;-2.30;99.90;;;;;;5095346;28;20204;-62
2021/12/27 06:33:21;;;;;;;6.77;3.47;;;-2.30;99.90;;;;;;5101363;28;20202;-62
2021/12/27 06:35:49;;;;;;;6.57;3.90;;;-2.40;99.90;;;;;;5097225;28;20188;-63
2021/12/27 06:38:17;;;;;;;6.93;3.17;;;-2.40;99.90;;;;;;5079669;28;20229;-62
2021/12/27 06:40:44;;;;;;;7.07;3.63;;;-2.40;99.90;;;;;;5078186;28;20207;-62
2021/12/27 06:43:11;;;;;;;7.53;3.47;;;-2.40;99.90;;;;;;5092314;28;20206;-62
2021/12/27 06:45:39;;;;;;;6.87;3.30;;;-2.40;99.90;;;;;;5104294;28;20212;-62
2021/12/27 06:48:06;;;;;;;7.77;3.70;;;-2.50;99.90;;;;;;5112147;28;20199;-63
2021/12/27 06:50:33;;;;;;;13.17;5.10;;;-2.50;99.90;;;;;;5105049;28;20210;-63
2021/12/27 06:53:00;;;;;;;17.27;6.57;;;-2.50;99.90;;;;;;5108081;28;20237;-62
2021/12/27 06:55:29;;;;;;;18.27;7.57;;;-2.40;99.90;;;;;;5101321;28;20200;-62
2021/12/27 06:57:56;;;;;;;22.53;8.53;;;-2.30;99.90;;;;;;5085381;28;20240;-62
2021/12/27 07:00:23;;;;;;;24.57;9.43;;;-2.30;99.90;;;;;;5110266;28;20712;-62
2021/12/27 07:02:51;;;;;;;32.37;8.00;;;-2.40;99.90;;;;;;5100628;28;20237;-62
2021/12/27 07:05:18;;;;;;;20.90;8.13;;;-2.50;99.90;;;;;;5111385;28;20222;-62
2021/12/27 07:07:46;;;;;;;15.40;6.40;;;-2.60;99.90;;;;;;5111484;28;20670;-61
2021/12/27 07:10:15;;;;;;;16.67;6.63;;;-2.70;99.90;;;;;;5111226;28;20245;-62
2021/12/27 07:12:44;;;;;;;16.70;6.70;;;-2.70;99.90;;;;;;5111081;28;20196;-62
2021/12/27 07:15:11;;;;;;;12.00;5.90;;;-2.70;99.90;;;;;;5091890;28;20203;-62
2021/12/27 07:17:38;;;;;;;16.83;6.63;;;-2.70;99.90;;;;;;5104266;28;20195;-62
2021/12/27 07:20:07;;;;;;;19.10;7.43;;;-2.70;99.90;;;;;;5108384;28;20283;-62
2021/12/27 07:22:35;;;;;;;12.97;5.60;;;-2.70;99.90;;;;;;5101645;28;20235;-62
2021/12/27 07:25:02;;;;;;;9.60;5.07;;;-2.70;99.90;;;;;;5105256;28;20200;-62
2021/12/27 07:27:29;;;;;;;17.07;6.63;;;-2.70;99.90;;;;;;5095226;28;20285;-62
2021/12/27 07:29:58;;;;;;;11.63;5.60;;;-2.70;99.90;;;;;;5096343;28;20204;-63
2021/12/27 07:32:25;;;;;;;12.97;6.37;;;-2.70;99.90;;;;;;5104179;28;20192;-62
2021/12/27 07:34:52;;;;;;;18.00;7.37;;;-2.80;99.90;;;;;;5102281;28;20196;-62
2021/12/27 07:37:19;;;;;;;11.50;5.70;;;-2.70;99.90;;;;;;5091293;28;20202;-61
2021/12/27 07:39:46;;;;;;;18.47;7.43;;;-2.80;99.90;;;;;;5093353;28;20199;-61
2021/12/27 07:42:14;;;;;;;12.03;5.13;;;-2.80;99.90;;;;;;5096272;28;20644;-62
2021/12/27 07:44:41;;;;;;;12.27;5.50;;;-2.80;99.90;;;;;;5096782;28;20578;-62
2021/12/27 07:47:09;;;;;;;17.60;7.47;;;-2.80;99.90;;;;;;5097809;28;20234;-61
2021/12/27 07:49:37;;;;;;;12.87;5.93;;;-2.60;99.90;;;;;;5099802;28;20214;-63
2021/12/27 07:52:05;;;;;;;19.07;7.57;;;-2.70;99.90;;;;;;5106981;28;20287;-61
2021/12/27 07:54:32;;;;;;;13.93;6.03;;;-2.70;99.90;;;;;;5099242;28;20240;-62
2021/12/27 07:57:00;;;;;;;15.43;6.43;;;-2.70;99.90;;;;;;5099106;28;20192;-61
2021/12/27 07:59:28;;;;;;;17.10;6.80;;;-2.70;99.90;;;;;;5097787;28;20198;-63
2021/12/27 08:01:55;;;;;;;18.40;6.70;;;-2.60;99.90;;;;;;5096319;28;20241;-63
2021/12/27 08:04:23;;;;;;;13.43;5.80;;;-2.70;99.90;;;;;;5104486;28;20301;-62
2021/12/27 08:06:51;;;;;;;22.30;8.00;;;-2.70;99.90;;;;;;5084144;28;20219;-62
2021/12/27 08:09:18;;;;;;;15.47;7.03;;;-2.70;99.90;;;;;;5104701;28;20226;-62
2021/12/27 08:11:45;;;;;;;22.80;8.13;;;-2.70;99.90;;;;;;5071796;28;20238;-61
2021/12/27 08:14:12;;;;;;;28.30;10.00;;;-2.70;99.90;;;;;;5098101;28;20191;-63
2021/12/27 08:16:40;;;;;;;22.03;8.43;;;-2.70;99.90;;;;;;5103432;28;20271;-63
2021/12/27 08:19:07;;;;;;;24.43;8.67;;;-2.70;99.90;;;;;;5097703;28;20230;-63
2021/12/27 08:21:37;;;;;;;29.63;8.87;;;-2.80;99.90;;;;;;5109742;28;20316;-62
2021/12/27 08:24:06;;;;;;;26.17;9.63;;;-2.90;99.90;;;;;;5100121;28;20279;-62
2021/12/27 08:26:33;;;;;;;24.63;8.10;;;-2.90;99.90;;;;;;5103123;28;20288;-62
2021/12/27 08:29:02;;;;;;;20.33;7.70;;;-3.10;99.90;;;;;;5110210;28;20597;-62
2021/12/27 08:31:29;;;;;;;18.27;6.90;;;-3.20;99.90;;;;;;5079708;28;20625;-62
2021/12/27 08:33:56;;;;;;;20.77;7.63;;;-3.30;99.90;;;;;;5107277;28;20676;-62
2021/12/27 08:36:23;;;;;;;19.30;7.80;;;-3.30;99.90;;;;;;5103435;28;20561;-63
2021/12/27 08:38:52;;;;;;;20.73;7.93;;;-3.20;99.90;;;;;;5109409;28;20188;-63
2021/12/27 08:41:27;;;;;;;16.37;6.70;;;-3.20;99.90;;;;;;5089709;28;20227;-62
2021/12/27 08:43:55;;;;;;;23.23;7.97;;;-3.20;99.90;;;;;;5101396;28;20191;-62
2021/12/27 08:46:22;;;;;;;21.03;8.23;;;-3.20;99.90;;;;;;5103855;28;20216;-62
2021/12/27 08:48:49;;;;;;;20.17;7.90;;;-3.30;99.90;;;;;;5107403;28;20209;-63
2021/12/27 08:51:16;;;;;;;22.70;8.07;;;-3.20;99.90;;;;;;5101466;28;20275;-62
2021/12/27 08:53:43;;;;;;;24.90;8.53;;;-3.10;99.90;;;;;;5106100;28;20527;-62
2021/12/27 08:56:12;;;;;;;17.37;7.77;;;-3.30;99.90;;;;;;5085807;28;20207;-62
2021/12/27 08:58:39;;;;;;;22.00;7.70;;;-3.30;99.90;;;;;;5098634;28;20207;-61
2021/12/27 09:01:07;;;;;;;25.60;10.17;;;-3.30;99.90;;;;;;5102333;28;20616;-62
2021/12/27 09:03:34;;;;;;;28.07;9.90;;;-3.30;99.90;;;;;;5090363;28;20203;-61
2021/12/27 09:06:01;;;;;;;28.10;9.47;;;-3.40;99.90;;;;;;5096761;28;20775;-61
2021/12/27 09:08:29;;;;;;;30.03;9.63;;;-3.40;99.90;;;;;;5097395;28;20227;-63
2021/12/27 09:10:58;;;;;;;29.30;9.83;;;-3.40;99.90;;;;;;5095854;28;20327;-62
2021/12/27 09:13:28;;;;;;;29.17;10.03;;;-3.50;99.90;;;;;;5108007;28;20203;-62
2021/12/27 09:15:56;;;;;;;27.40;10.27;;;-3.50;99.90;;;;;;5101575;28;20787;-62
2021/12/27 09:18:26;;;;;;;29.30;10.80;;;-3.50;99.90;;;;;;5100566;28;20196;-62
2021/12/27 09:20:53;;;;;;;36.20;12.00;;;-3.50;99.90;;;;;;5096487;28;20187;-63
2021/12/27 09:23:20;;;;;;;30.73;10.87;;;-3.60;99.90;;;;;;5082816;28;20232;-62
2021/12/27 09:25:47;;;;;;;31.47;10.30;;;-3.60;99.90;;;;;;5091782;28;20184;-62
2021/12/27 09:28:14;;;;;;;30.60;10.47;;;-3.70;99.90;;;;;;5099476;28;20749;-62
2021/12/27 09:30:43;;;;;;;33.83;10.80;;;-3.60;99.90;;;;;;5107196;28;20294;-62
2021/12/27 09:33:11;;;;;;;30.70;10.90;;;-3.80;99.90;;;;;;5086142;28;20273;-62
2021/12/27 09:35:38;;;;;;;33.90;11.73;;;-3.80;99.90;;;;;;5108890;28;20192;-62
2021/12/27 09:38:06;;;;;;;33.50;11.10;;;-3.80;99.90;;;;;;5089146;28;20286;-62
2021/12/27 09:40:33;;;;;;;28.77;10.80;;;-3.70;99.90;;;;;;5106703;28;20199;-62
2021/12/27 09:43:00;;;;;;;31.97;11.53;;;-3.70;99.90;;;;;;5096220;28;20592;-63
2021/12/27 09:45:27;;;;;;;30.87;10.57;;;-3.70;99.90;;;;;;5098233;28;20187;-63
2021/12/27 09:47:56;;;;;;;21.13;9.33;;;-3.70;99.90;;;;;;5102369;28;20216;-62
2021/12/27 09:50:26;;;;;;;27.20;10.47;;;-3.70;99.90;;;;;;5103577;28;20189;-62
2021/12/27 09:52:53;;;;;;;35.47;11.40;;;-3.80;99.90;;;;;;5089165;28;20671;-62
2021/12/27 09:55:21;;;;;;;34.17;11.93;;;-3.80;99.90;;;;;;5104763;28;20227;-61
2021/12/27 09:57:48;;;;;;;34.40;12.30;;;-3.80;99.90;;;;;;5092921;28;20197;-62
2021/12/27 10:00:18;;;;;;;31.40;12.03;;;-3.80;99.90;;;;;;5110667;28;20656;-61
2021/12/27 10:02:49;;;;;;;39.07;12.57;;;-3.80;99.90;;;;;;5112659;28;20192;-62
2021/12/27 10:05:20;;;;;;;36.60;14.23;;;-3.70;99.90;;;;;;5099790;28;20216;-62
2021/12/27 10:07:47;;;;;;;35.20;12.90;;;-3.70;99.90;;;;;;5094260;28;20307;-61
2021/12/27 10:10:15;;;;;;;37.57;14.00;;;-3.70;99.90;;;;;;5099795;28;20192;-62
2021/12/27 10:12:42;;;;;;;45.73;14.37;;;-3.30;99.90;;;;;;5100057;28;20648;-62
2021/12/27 10:15:13;;;;;;;49.90;16.37;;;-3.60;99.90;;;;;;5097369;28;20196;-63
2021/12/27 10:17:42;;;;;;;44.03;16.07;;;-3.70;99.90;;;;;;5100561;28;20284;-63
2021/12/27 10:20:10;;;;;;;35.63;13.30;;;-3.70;99.90;;;;;;5090904;28;20280;-62
2021/12/27 10:22:40;;;;;;;41.60;14.77;;;-3.70;99.90;;;;;;5093363;28;20624;-62
2021/12/27 10:25:13;;;;;;;46.50;15.97;;;-3.70;99.90;;;;;;5088589;28;20190;-61
2021/12/27 10:27:40;;;;;;;40.73;14.67;;;-3.60;99.90;;;;;;5097947;28;20207;-62
2021/12/27 10:30:13;;;;;;;49.70;16.83;;;-3.50;99.90;;;;;;5084163;28;20203;-62
2021/12/27 10:32:41;;;;;;;40.87;15.77;;;-3.50;99.90;;;;;;5093293;28;20290;-62
2021/12/27 10:35:10;;;;;;;53.83;17.57;;;-3.40;99.90;;;;;;5106204;28;20220;-62
2021/12/27 10:37:41;;;;;;;48.67;17.93;;;-3.30;99.90;;;;;;5109924;28;20230;-61
2021/12/27 10:40:10;;;;;;;50.77;18.03;;;-3.30;99.90;;;;;;5103256;28;20207;-62
2021/12/27 10:42:39;;;;;;;46.70;16.57;;;-3.30;99.90;;;;;;5108405;28;20202;-62
2021/12/27 10:45:11;;;;;;;47.40;17.87;;;-3.20;99.90;;;;;;5106689;28;20873;-62
2021/12/27 10:47:41;;;;;;;51.63;18.80;;;-3.10;99.90;;;;;;5100210;28;20204;-62
2021/12/27 10:50:12;;;;;;;52.53;19.27;;;-3.10;99.60;;;;;;5105574;28;20188;-62
2021/12/27 10:53:00;;;;;;;42.73;15.73;;;-3.00;99.50;;;;;;5108131;28;20200;-62
2021/12/27 10:55:31;;;;;;;54.47;18.87;;;-3.00;99.50;;;;;;5101585;28;20559;-63
2021/12/27 10:58:14;;;;;;;58.17;21.70;;;-2.90;99.40;;;;;;5087805;28;20204;-63
2021/12/27 11:00:43;;;;;;;49.53;18.63;;;-2.90;99.10;;;;;;5104209;28;20662;-62
2021/12/27 11:03:24;;;;;;;63.77;22.13;;;-2.90;99.10;;;;;;5102765;28;20200;-62
2021/12/27 11:05:51;;;;;;;66.83;22.13;;;-3.00;98.90;;;;;;5107999;28;20253;-62
2021/12/27 11:08:21;;;;;;;55.87;20.10;;;-3.00;98.80;;;;;;5109992;28;20211;-62
2021/12/27 11:10:48;;;;;;;54.73;19.43;;;-3.10;98.80;;;;;;5074566;28;20204;-62
2021/12/27 11:13:16;;;;;;;67.37;22.73;;;-3.20;98.80;;;;;;5093510;28;20623;-62
2021/12/27 11:15:43;;;;;;;69.90;22.00;;;-3.20;98.80;;;;;;5097293;27;20592;-62
2021/12/27 11:18:12;;;;;;;67.93;22.43;;;-3.20;98.80;;;;;;5103271;28;20192;-62
2021/12/27 11:20:44;;;;;;;67.20;23.53;;;-3.20;98.80;;;;;;5094330;28;20201;-62
2021/12/27 11:23:12;;;;;;;63.67;23.03;;;-3.20;98.80;;;;;;5094637;28;20220;-62
2021/12/27 11:25:43;;;;;;;56.07;20.17;;;-3.20;98.70;;;;;;5108644;28;20207;-63
2021/12/27 11:28:28;;;;;;;77.67;25.23;;;-3.20;98.70;;;;;;5108650;28;20620;-63
2021/12/27 11:30:58;;;;;;;91.07;30.17;;;-3.30;98.60;;;;;;5106918;28;20546;-62
2021/12/27 11:33:26;;;;;;;90.37;30.90;;;-3.30;98.20;;;;;;5085681;28;20283;-62
2021/12/27 11:36:08;;;;;;;72.77;27.80;;;-3.40;97.50;;;;;;5095602;28;20266;-62
2021/12/27 11:38:37;;;;;;;101.60;32.23;;;-3.50;97.60;;;;;;5078239;28;20233;-62
2021/12/27 11:41:08;;;;;;;66.77;25.07;;;-3.50;97.50;;;;;;5104142;28;20199;-62
2021/12/27 11:43:48;;;;;;;87.07;31.00;;;-3.60;97.60;;;;;;5104939;28;20532;-61
2021/12/27 11:46:16;;;;;;;75.90;27.40;;;-3.50;97.40;;;;;;5103820;28;20218;-62
2021/12/27 11:48:49;;;;;;;71.97;25.57;;;-3.50;97.30;;;;;;5097991;28;20207;-62
2021/12/27 11:51:17;;;;;;;61.37;22.23;;;-3.60;97.40;;;;;;5111987;27;20202;-61
2021/12/27 11:53:53;;;;;;;62.07;23.57;;;-3.60;97.50;;;;;;5090042;28;20264;-62
2021/12/27 11:56:46;;;;;;;60.10;22.17;;;-3.60;97.60;;;;;;5098899;28;20195;-62
2021/12/27 11:59:32;;;;;;;65.43;23.10;;;-3.70;97.60;;;;;;5106889;28;20598;-62
2021/12/27 12:02:00;;;;;;;70.23;24.40;;;-3.70;97.60;;;;;;5095483;28;20192;-62
2021/12/27 12:04:42;;;;;;;66.87;23.17;;;-3.60;97.50;;;;;;5092031;28;20193;-62
2021/12/27 12:07:10;;;;;;;95.20;30.13;;;-3.90;97.40;;;;;;5104369;28;20616;-62
2021/12/27 12:09:46;;;;;;;86.37;28.47;;;-3.90;97.30;;;;;;5091912;28;20254;-62
2021/12/27 12:12:15;;;;;;;87.90;29.77;;;-3.60;97.50;;;;;;5107182;28;20198;-62
2021/12/27 12:14:43;;;;;;;95.43;32.13;;;-4.00;97.20;;;;;;5109077;28;20230;-63
2021/12/27 12:17:13;;;;;;;77.27;27.60;;;-4.00;97.10;;;;;;5106943;28;20757;-63
2021/12/27 12:19:43;;;;;;;76.07;26.90;;;-3.90;97.30;;;;;;5081764;28;20204;-62
2021/12/27 12:22:33;;;;;;;81.67;27.40;;;-3.80;97.40;;;;;;5086867;28;20263;-62
2021/12/27 12:25:11;;;;;;;87.93;29.17;;;-3.90;97.40;;;;;;5083436;28;20199;-62
2021/12/27 12:27:51;;;;;;;81.23;28.97;;;-3.90;97.30;;;;;;5082126;28;20210;-63
2021/12/27 12:30:18;;;;;;;71.63;26.60;;;-4.00;97.10;;;;;;5085751;28;20218;-62
2021/12/27 12:33:01;;;;;;;70.60;26.17;;;-4.10;97.20;;;;;;5085998;28;20204;-62
2021/12/27 12:35:33;;;;;;;73.70;26.67;;;-4.10;97.30;;;;;;5076302;28;20192;-62
2021/12/27 12:38:13;;;;;;;75.90;26.50;;;-4.10;97.40;;;;;;5080616;28;20185;-62
2021/12/27 12:40:41;;;;;;;73.67;26.23;;;-4.10;97.40;;;;;;5078146;28;20276;-62
2021/12/27 12:43:10;;;;;;;61.87;23.27;;;-4.10;97.40;;;;;;5076151;28;20255;-62
2021/12/27 12:45:38;;;;;;;57.93;21.37;;;-4.10;97.50;;;;;;5083915;28;20200;-63